createdAt,value
2019-02-22T00:02:27.802Z,7.87
2019-02-22T00:04:57.227Z,7.53
2019-02-22T00:07:26.635Z,8.20
2019-02-22T00:09:56.150Z,9.20
2019-02-22T00:12:25.558Z,13.87
2019-02-22T00:14:54.993Z,16.23
2019-02-22T00:17:24.434Z,15.80
2019-02-22T00:19:53.908Z,17.63
2019-02-22T00:22:23.314Z,8.60
2019-02-22T00:24:52.585Z,9.00
2019-02-22T00:27:21.842Z,7.57
2019-02-22T00:29:51.133Z,9.63
2019-02-22T00:32:20.453Z,10.07
2019-02-22T00:34:49.665Z,6.03
2019-02-22T00:37:19.008Z,10.07
2019-02-22T00:39:48.233Z,6.77
2019-02-22T00:42:17.569Z,5.37
2019-02-22T00:44:46.953Z,8.73
2019-02-22T00:47:16.289Z,6.30
2019-02-22T00:49:45.933Z,6.77
2019-02-22T00:52:15.297Z,4.93
2019-02-22T00:54:44.569Z,6.03
2019-02-22T00:57:13.993Z,7.13
2019-02-22T00:59:43.225Z,7.57
2019-02-22T01:02:12.545Z,4.93
2019-02-22T01:04:41.837Z,5.63
2019-02-22T01:07:11.241Z,6.37
2019-02-22T01:09:40.553Z,4.73
2019-02-22T01:12:09.945Z,4.67
2019-02-22T01:14:39.213Z,4.37
2019-02-22T01:17:08.609Z,6.33
2019-02-22T01:19:37.984Z,5.77
2019-02-22T01:22:07.341Z,6.30
2019-02-22T01:24:36.621Z,4.63
2019-02-22T01:27:05.905Z,8.80
2019-02-22T01:29:35.185Z,7.77
2019-02-22T01:32:04.576Z,6.37
2019-02-22T01:34:33.989Z,6.53
2019-02-22T01:37:03.324Z,5.87
2019-02-22T01:39:32.617Z,5.27
2019-02-22T01:42:01.926Z,6.07
2019-02-22T01:44:31.252Z,5.77
2019-02-22T01:47:00.500Z,5.50
2019-02-22T01:49:29.796Z,6.07
2019-02-22T01:51:59.046Z,4.60
2019-02-22T01:54:28.332Z,5.27
2019-02-22T01:56:57.591Z,5.37
2019-02-22T01:59:26.949Z,5.37
2019-02-22T02:01:56.220Z,4.23
2019-02-22T02:04:25.590Z,3.80
2019-02-22T02:06:54.948Z,6.27
2019-02-22T02:09:24.202Z,4.07
2019-02-22T02:11:53.576Z,4.57
2019-02-22T02:14:22.828Z,5.97
2019-02-22T02:16:52.116Z,4.97
2019-02-22T02:19:21.413Z,5.47
2019-02-22T02:21:50.648Z,6.20
2019-02-22T02:24:19.968Z,6.77
2019-02-22T02:26:49.296Z,3.97
2019-02-22T02:29:18.572Z,5.90
2019-02-22T02:31:47.936Z,5.27
2019-02-22T02:34:17.303Z,6.87
2019-02-22T02:36:46.669Z,4.37
2019-02-22T02:39:15.983Z,5.97
2019-02-22T02:41:45.351Z,6.10
2019-02-22T02:44:14.587Z,5.97
2019-02-22T02:46:43.884Z,6.23
2019-02-22T02:49:13.115Z,6.93
2019-02-22T02:51:42.427Z,3.43
2019-02-22T02:54:11.679Z,6.93
2019-02-22T02:56:41.803Z,9.07
2019-02-22T02:59:11.146Z,8.73
2019-02-22T03:01:40.515Z,5.33
2019-02-22T03:04:09.891Z,4.20
2019-02-22T03:06:44.951Z,3.90
2019-02-22T03:09:14.235Z,6.43
2019-02-22T03:11:43.574Z,6.80
2019-02-22T03:14:13.248Z,5.63
2019-02-22T03:16:42.575Z,7.37
2019-02-22T03:19:11.834Z,5.07
2019-02-22T03:21:41.204Z,3.67
2019-02-22T03:24:10.459Z,6.93
2019-02-22T03:26:39.786Z,5.33
2019-02-22T03:29:09.066Z,5.13
2019-02-22T03:31:38.337Z,6.50
2019-02-22T03:34:07.700Z,5.83
2019-02-22T03:36:37.110Z,5.87
2019-02-22T03:39:07.214Z,4.73
2019-02-22T03:41:36.518Z,4.83
2019-02-22T03:44:05.868Z,6.10
2019-02-22T03:46:35.167Z,3.47
2019-02-22T03:49:04.544Z,4.30
2019-02-22T03:51:33.890Z,4.77
2019-02-22T03:54:04.270Z,4.30
2019-02-22T03:56:33.638Z,4.80
2019-02-22T03:59:03.006Z,5.57
2019-02-22T04:01:32.334Z,6.20
2019-02-22T04:04:01.621Z,4.57
2019-02-22T04:06:30.880Z,6.63
2019-02-22T04:09:00.338Z,5.97
2019-02-22T04:11:29.958Z,5.90
2019-02-22T04:13:59.242Z,7.30
2019-02-22T04:16:28.551Z,7.30
2019-02-22T04:18:57.955Z,5.27
2019-02-22T04:21:27.230Z,6.60
2019-02-22T04:23:56.570Z,3.90
2019-02-22T04:26:25.836Z,4.00
2019-02-22T04:28:55.369Z,5.07
2019-02-22T04:31:24.784Z,3.53
2019-02-22T04:33:54.090Z,3.53
2019-02-22T04:36:23.355Z,5.87
2019-02-22T04:38:52.629Z,5.07
2019-02-22T04:41:21.944Z,2.93
2019-02-22T04:43:51.333Z,4.73
2019-02-22T04:46:20.606Z,4.47
2019-02-22T04:48:49.979Z,4.37
2019-02-22T04:51:19.269Z,4.13
2019-02-22T04:53:48.509Z,5.33
2019-02-22T04:56:17.817Z,6.83
2019-02-22T04:58:47.109Z,5.10
2019-02-22T05:01:16.391Z,3.63
2019-02-22T05:03:45.722Z,15.10
2019-02-22T05:06:14.989Z,4.17
2019-02-22T05:08:44.360Z,5.67
2019-02-22T05:11:13.890Z,4.83
2019-02-22T05:13:43.354Z,3.97
2019-02-22T05:16:12.924Z,4.27
2019-02-22T05:18:42.202Z,5.90
2019-02-22T05:21:11.718Z,4.90
2019-02-22T05:23:41.074Z,6.30
2019-02-22T05:26:10.520Z,5.40
2019-02-22T05:28:39.794Z,3.83
2019-02-22T05:31:09.166Z,5.33
2019-02-22T05:33:38.430Z,3.50
2019-02-22T05:36:07.737Z,4.33
2019-02-22T05:38:37.026Z,7.33
2019-02-22T05:41:06.366Z,10.10
2019-02-22T05:43:35.682Z,6.63
2019-02-22T05:46:05.540Z,4.17
2019-02-22T05:48:34.813Z,6.80
2019-02-22T05:51:04.116Z,7.23
2019-02-22T05:53:33.408Z,5.30
2019-02-22T05:56:02.684Z,6.03
2019-02-22T05:58:31.924Z,6.57
2019-02-22T06:01:06.618Z,6.13
2019-02-22T06:03:34.676Z,7.40
2019-02-22T06:06:03.980Z,7.23
2019-02-22T06:08:33.270Z,6.03
2019-02-22T06:11:02.646Z,7.27
2019-02-22T06:13:31.881Z,8.23
2019-02-22T06:16:01.197Z,8.00
2019-02-22T06:18:30.424Z,6.40
2019-02-22T06:20:59.821Z,5.40
2019-02-22T06:23:29.080Z,5.23
2019-02-22T06:25:58.368Z,6.57
2019-02-22T06:28:27.692Z,9.17
2019-02-22T06:30:57.082Z,7.70
2019-02-22T06:33:26.327Z,6.47
2019-02-22T06:35:55.591Z,5.03
2019-02-22T06:38:24.920Z,6.37
2019-02-22T06:40:54.284Z,10.43
2019-02-22T06:43:24.639Z,11.13
2019-02-22T06:45:54.017Z,6.83
2019-02-22T06:48:23.371Z,5.23
2019-02-22T06:50:52.659Z,5.87
2019-02-22T06:53:21.951Z,7.23
2019-02-22T06:55:51.204Z,5.63
2019-02-22T06:58:20.609Z,8.43
2019-02-22T07:00:49.879Z,9.60
2019-02-22T07:03:19.316Z,6.03
2019-02-22T07:05:48.651Z,6.60
2019-02-22T07:08:17.972Z,6.60
2019-02-22T07:11:18.283Z,5.20
2019-02-22T07:13:47.667Z,5.77
2019-02-22T07:16:17.018Z,5.47
2019-02-22T07:18:46.295Z,8.27
2019-02-22T07:21:16.411Z,5.63
2019-02-22T07:23:45.921Z,5.47
2019-02-22T07:26:15.154Z,7.10
2019-02-22T07:28:44.496Z,4.17
2019-02-22T07:31:13.737Z,4.87
2019-02-22T07:33:42.971Z,7.00
2019-02-22T07:36:12.271Z,4.87
2019-02-22T07:38:41.587Z,7.53
2019-02-22T07:41:10.983Z,4.70
2019-02-22T07:43:40.279Z,4.10
2019-02-22T07:46:09.586Z,5.90
2019-02-22T07:48:39.111Z,4.10
2019-02-22T07:51:08.358Z,4.00
2019-02-22T07:53:37.656Z,6.03
2019-02-22T07:56:06.975Z,5.97
2019-02-22T07:58:36.246Z,7.27
2019-02-22T08:01:05.423Z,7.07
2019-02-22T08:03:37.314Z,4.47
2019-02-22T08:06:05.594Z,5.13
2019-02-22T08:08:35.754Z,3.97
2019-02-22T08:11:05.050Z,3.83
2019-02-22T08:13:34.299Z,5.67
2019-02-22T08:16:03.656Z,4.43
2019-02-22T08:18:32.981Z,6.67
2019-02-22T08:21:04.154Z,3.20
2019-02-22T08:23:33.439Z,3.67
2019-02-22T08:26:02.706Z,6.63
2019-02-22T08:28:32.018Z,4.70
2019-02-22T08:31:01.740Z,5.20
2019-02-22T08:33:31.122Z,5.00
2019-02-22T08:36:00.401Z,6.17
2019-02-22T08:38:29.697Z,5.67
2019-02-22T08:40:58.977Z,8.73
2019-02-22T08:43:31.517Z,6.10
2019-02-22T08:45:59.265Z,5.63
2019-02-22T08:48:28.581Z,9.27
2019-02-22T08:50:57.845Z,5.57
2019-02-22T08:53:27.253Z,4.37
2019-02-22T08:55:56.600Z,4.20
2019-02-22T08:58:26.005Z,6.40
2019-02-22T09:00:55.360Z,11.43
2019-02-22T09:03:24.617Z,5.40
2019-02-22T09:05:53.925Z,5.73
2019-02-22T09:08:23.261Z,7.03
2019-02-22T09:11:00.368Z,5.10
2019-02-22T09:13:23.460Z,7.30
2019-02-22T09:15:52.744Z,4.53
2019-02-22T09:18:22.013Z,6.30
2019-02-22T09:20:51.392Z,8.30
2019-02-22T09:23:20.661Z,4.80
2019-02-22T09:25:49.946Z,4.87
2019-02-22T09:28:19.184Z,3.73
2019-02-22T09:30:48.549Z,4.07
2019-02-22T09:33:17.798Z,6.53
2019-02-22T09:35:47.157Z,5.17
2019-02-22T09:38:16.412Z,3.53
2019-02-22T09:40:45.694Z,3.30
2019-02-22T09:43:14.980Z,2.73
2019-02-22T09:45:44.353Z,5.10
2019-02-22T09:48:13.627Z,4.87
2019-02-22T09:50:43.056Z,2.53
2019-02-22T09:53:12.321Z,4.47
2019-02-22T09:55:41.612Z,4.03
2019-02-22T09:58:10.904Z,5.33
2019-02-22T10:00:40.153Z,2.50
2019-02-22T10:03:09.396Z,2.83
2019-02-22T10:05:38.764Z,5.50
2019-02-22T10:08:08.049Z,3.93
2019-02-22T10:10:37.513Z,4.27
2019-02-22T10:13:06.808Z,3.57
2019-02-22T10:15:36.061Z,3.13
2019-02-22T10:18:05.416Z,3.33
2019-02-22T10:20:34.681Z,4.77
2019-02-22T10:23:03.968Z,3.10
2019-02-22T10:25:33.212Z,6.77
2019-02-22T10:28:02.484Z,4.27
2019-02-22T10:30:31.812Z,3.10
2019-02-22T10:33:01.060Z,2.23
2019-02-22T10:35:31.167Z,2.70
2019-02-22T10:38:00.435Z,6.00
2019-02-22T10:40:29.783Z,3.47
2019-02-22T10:42:59.139Z,2.97
2019-02-22T10:45:28.443Z,3.40
2019-02-22T10:47:57.719Z,2.97
2019-02-22T10:50:26.992Z,3.03
2019-02-22T10:53:02.133Z,2.90
2019-02-22T10:55:27.350Z,3.13
2019-02-22T10:57:56.735Z,2.77
2019-02-22T11:00:26.201Z,2.97
2019-02-22T11:02:55.448Z,2.90
2019-02-22T11:05:24.823Z,3.83
2019-02-22T11:07:55.062Z,2.23
2019-02-22T11:10:24.360Z,3.10
2019-02-22T11:12:53.643Z,2.70
2019-02-22T11:15:22.918Z,2.30
2019-02-22T11:17:52.115Z,5.40
2019-02-22T11:20:21.407Z,4.17
2019-02-22T11:22:50.643Z,3.77
2019-02-22T11:25:19.857Z,4.30
2019-02-22T11:27:49.082Z,4.47
2019-02-22T11:30:18.498Z,2.63
2019-02-22T11:32:48.075Z,2.70
2019-02-22T11:35:17.410Z,5.10
2019-02-22T11:37:46.700Z,2.40
2019-02-22T11:40:16.069Z,3.10
2019-02-22T11:42:45.410Z,4.60
2019-02-22T11:45:14.722Z,3.33
2019-02-22T11:47:44.094Z,2.27
2019-02-22T11:50:13.366Z,4.37
2019-02-22T11:52:42.643Z,2.37
2019-02-22T11:55:11.997Z,3.70
2019-02-22T11:57:41.398Z,3.40
2019-02-22T12:00:13.278Z,4.53
2019-02-22T12:02:45.159Z,3.90
2019-02-22T12:05:13.631Z,8.57
2019-02-22T12:07:42.993Z,7.07
2019-02-22T12:10:12.330Z,3.33
2019-02-22T12:12:41.873Z,4.17
2019-02-22T12:15:11.204Z,4.57
2019-02-22T12:17:40.501Z,5.00
2019-02-22T12:20:10.395Z,7.97
2019-02-22T12:22:39.654Z,5.90
2019-02-22T12:25:09.065Z,3.70
2019-02-22T12:27:38.307Z,3.50
2019-02-22T12:30:09.608Z,6.03
2019-02-22T12:32:39.668Z,4.63
2019-02-22T12:35:09.789Z,4.03
2019-02-22T12:37:39.060Z,12.77
2019-02-22T12:40:09.098Z,6.13
2019-02-22T12:42:39.254Z,7.87
2019-02-22T12:45:08.646Z,4.93
2019-02-22T12:47:38.305Z,9.50
2019-02-22T12:50:08.389Z,4.07
2019-02-22T12:52:37.716Z,4.20
2019-02-22T12:55:07.560Z,4.53
2019-02-22T12:57:36.809Z,3.47
2019-02-22T13:00:07.738Z,5.17
2019-02-22T13:02:37.009Z,6.37
2019-02-22T13:05:07.089Z,4.90
2019-02-22T13:07:36.380Z,5.43
2019-02-22T13:10:06.085Z,4.83
2019-02-22T13:12:35.455Z,5.53
2019-02-22T13:15:13.641Z,3.90
2019-02-22T13:17:35.645Z,4.20
2019-02-22T13:20:05.269Z,6.00
2019-02-22T13:22:34.557Z,3.77
2019-02-22T13:25:03.909Z,4.60
2019-02-22T13:27:33.224Z,4.33
2019-02-22T13:30:02.658Z,3.67
2019-02-22T13:32:32.061Z,6.50
2019-02-22T13:35:01.358Z,5.17
2019-02-22T13:37:30.673Z,4.47
2019-02-22T13:39:59.996Z,5.57
2019-02-22T13:42:29.320Z,4.07
2019-02-22T13:44:58.594Z,9.57
2019-02-22T13:47:27.844Z,3.17
2019-02-22T13:49:57.197Z,5.63
2019-02-22T13:52:26.472Z,4.13
2019-02-22T13:54:55.800Z,6.40
2019-02-22T13:57:25.108Z,9.17
2019-02-22T13:59:54.512Z,4.83
2019-02-22T14:02:23.757Z,6.53
2019-02-22T14:04:53.022Z,6.23
2019-02-22T14:07:22.300Z,5.93
2019-02-22T14:09:51.592Z,5.37
2019-02-22T14:12:20.852Z,3.47
2019-02-22T14:14:50.144Z,4.03
2019-02-22T14:17:19.446Z,4.53
2019-02-22T14:19:48.724Z,6.50
2019-02-22T14:22:18.025Z,4.63
2019-02-22T14:24:47.315Z,7.07
2019-02-22T14:27:16.591Z,5.40
2019-02-22T14:29:45.892Z,5.43
2019-02-22T14:32:15.159Z,7.53
2019-02-22T14:34:44.407Z,5.20
2019-02-22T14:37:13.789Z,5.93
2019-02-22T14:39:43.156Z,4.97
2019-02-22T14:42:12.414Z,4.80
2019-02-22T14:44:41.744Z,6.27
2019-02-22T14:47:11.116Z,4.53
2019-02-22T14:49:40.415Z,5.73
2019-02-22T14:52:09.743Z,3.67
2019-02-22T14:54:39.131Z,13.90
2019-02-22T14:57:08.499Z,6.97
2019-02-22T14:59:37.811Z,8.93
2019-02-22T15:02:07.080Z,7.10
2019-02-22T15:04:36.450Z,5.30
2019-02-22T15:07:05.842Z,4.93
2019-02-22T15:09:35.108Z,35.37
2019-02-22T15:12:04.400Z,7.03
2019-02-22T15:14:34.787Z,9.17
2019-02-22T15:17:12.113Z,9.17
2019-02-22T15:19:41.460Z,7.93
2019-02-22T15:22:10.744Z,9.57
2019-02-22T15:24:39.994Z,8.43
2019-02-22T15:27:09.294Z,9.90
2019-02-22T15:29:38.551Z,12.37
2019-02-22T15:32:07.925Z,7.70
2019-02-22T15:34:37.256Z,5.20
2019-02-22T15:37:06.547Z,6.60
2019-02-22T15:39:35.891Z,9.90
2019-02-22T15:42:05.170Z,7.77
2019-02-22T15:44:34.467Z,5.27
2019-02-22T15:47:11.666Z,9.07
2019-02-22T15:49:34.970Z,8.07
2019-02-22T15:52:04.584Z,6.00
2019-02-22T15:54:33.938Z,7.87
2019-02-22T15:57:03.336Z,9.27
2019-02-22T15:59:32.630Z,7.80
2019-02-22T16:02:01.883Z,7.73
2019-02-22T16:04:53.530Z,11.97
2019-02-22T16:07:22.862Z,9.63
2019-02-22T16:09:52.146Z,8.60
2019-02-22T16:12:21.462Z,9.63
2019-02-22T16:14:50.718Z,11.07
2019-02-22T16:17:20.010Z,8.93
2019-02-22T16:19:51.477Z,9.17
2019-02-22T16:22:20.182Z,8.63
2019-02-22T16:24:50.503Z,11.13
2019-02-22T16:27:19.766Z,9.10
2019-02-22T16:29:49.122Z,9.00
2019-02-22T16:32:18.458Z,9.53
2019-02-22T16:34:48.122Z,14.27
2019-02-22T16:37:17.443Z,16.33
2019-02-22T16:39:46.678Z,18.90
2019-02-22T16:42:16.074Z,18.10
2019-02-22T16:44:45.361Z,19.67
2019-02-22T16:47:14.790Z,24.50
2019-02-22T16:49:44.041Z,32.80
2019-02-22T16:52:13.349Z,32.40
2019-02-22T16:54:42.681Z,36.70
2019-02-22T16:57:12.048Z,27.73
2019-02-22T16:59:41.362Z,40.40
2019-02-22T17:02:10.633Z,21.93
2019-02-22T17:04:40.015Z,27.40
2019-02-22T17:07:09.341Z,16.73
2019-02-22T17:09:38.826Z,23.37
2019-02-22T17:12:08.069Z,15.00
2019-02-22T17:14:37.325Z,23.33
2019-02-22T17:17:06.597Z,22.47
2019-02-22T17:19:35.852Z,19.20
2019-02-22T17:22:05.161Z,30.90
2019-02-22T17:24:34.432Z,21.90
2019-02-22T17:27:03.730Z,44.83
2019-02-22T17:29:33.062Z,41.30
2019-02-22T17:32:02.365Z,31.57
2019-02-22T17:34:31.701Z,29.73
2019-02-22T17:37:01.081Z,28.43
2019-02-22T17:39:30.421Z,21.67
2019-02-22T17:41:59.957Z,23.40
2019-02-22T17:44:29.209Z,42.80
2019-02-22T17:46:58.632Z,32.60
2019-02-22T17:49:27.950Z,34.90
2019-02-22T17:51:57.309Z,29.67
2019-02-22T17:54:26.552Z,24.13
2019-02-22T17:56:55.928Z,32.73
2019-02-22T17:59:25.281Z,27.97
2019-02-22T18:01:54.640Z,30.20
2019-02-22T18:04:23.956Z,27.30
2019-02-22T18:06:53.308Z,29.23
2019-02-22T18:09:22.589Z,63.97
2019-02-22T18:11:51.884Z,63.20
2019-02-22T18:14:21.208Z,28.60
2019-02-22T18:16:50.492Z,63.33
2019-02-22T18:19:19.820Z,30.57
2019-02-22T18:21:49.256Z,45.57
2019-02-22T18:24:18.527Z,30.80
2019-02-22T18:26:47.901Z,39.63
2019-02-22T18:29:17.188Z,44.93
2019-02-22T18:31:46.469Z,38.33
2019-02-22T18:34:15.836Z,30.17
2019-02-22T18:36:45.239Z,55.80
2019-02-22T18:39:14.531Z,35.53
2019-02-22T18:41:43.877Z,35.47
2019-02-22T18:44:13.275Z,25.70
2019-02-22T18:46:42.700Z,86.70
2019-02-22T18:49:12.072Z,81.10
2019-02-22T18:51:41.383Z,95.93
2019-02-22T18:54:10.847Z,93.93
2019-02-22T18:56:40.105Z,76.43
2019-02-22T18:59:09.496Z,173.13
2019-02-22T19:01:38.815Z,202.67
2019-02-22T19:04:08.131Z,173.77
2019-02-22T19:06:37.459Z,126.00
2019-02-22T19:09:07.148Z,74.23
2019-02-22T19:11:36.447Z,48.63
2019-02-22T19:14:05.830Z,37.07
2019-02-22T19:16:35.131Z,57.60
2019-02-22T19:19:04.464Z,54.17
2019-02-22T19:21:33.771Z,36.03
2019-02-22T19:24:03.091Z,46.77
2019-02-22T19:26:32.451Z,44.83
2019-02-22T19:29:01.779Z,61.47
2019-02-22T19:31:31.051Z,60.30
2019-02-22T19:34:00.306Z,47.27
2019-02-22T19:36:29.595Z,51.83
2019-02-22T19:38:58.975Z,45.90
2019-02-22T19:41:28.239Z,40.67
2019-02-22T19:43:57.555Z,62.87
2019-02-22T19:46:28.787Z,42.93
2019-02-22T19:48:58.087Z,102.10
2019-02-22T19:51:27.447Z,88.27
2019-02-22T19:53:56.739Z,68.57
2019-02-22T19:56:25.999Z,144.77
2019-02-22T19:58:55.352Z,129.27
2019-02-22T20:01:24.709Z,131.80
2019-02-22T20:03:54.071Z,114.50
2019-02-22T20:06:23.399Z,123.53
2019-02-22T20:08:52.690Z,111.70
2019-02-22T20:11:21.988Z,112.87
2019-02-22T20:13:51.362Z,121.83
2019-02-22T20:16:20.707Z,107.53
2019-02-22T20:18:50.029Z,81.00
2019-02-22T20:21:19.325Z,84.63
2019-02-22T20:23:48.570Z,80.27
2019-02-22T20:26:17.899Z,79.13
2019-02-22T20:28:47.274Z,67.43
2019-02-22T20:31:20.355Z,46.60
2019-02-22T20:33:47.484Z,41.57
2019-02-22T20:36:18.155Z,22.23
2019-02-22T20:38:47.790Z,23.47
2019-02-22T20:41:16.972Z,20.03
2019-02-22T20:43:46.350Z,19.47
2019-02-22T20:46:15.606Z,19.33
2019-02-22T20:48:45.050Z,56.77
2019-02-22T20:51:14.320Z,54.80
2019-02-22T20:53:43.667Z,39.43
2019-02-22T20:56:13.142Z,80.97
2019-02-22T20:58:42.442Z,112.67
2019-02-22T21:01:14.743Z,57.40
2019-02-22T21:03:42.788Z,89.93
2019-02-22T21:06:12.126Z,74.73
2019-02-22T21:08:41.434Z,100.97
2019-02-22T21:11:10.694Z,80.80
2019-02-22T21:13:39.990Z,68.33
2019-02-22T21:16:09.210Z,61.67
2019-02-22T21:18:38.622Z,47.40
2019-02-22T21:21:07.872Z,61.67
2019-02-22T21:23:37.470Z,55.33
2019-02-22T21:26:06.766Z,55.53
2019-02-22T21:28:36.038Z,65.00
2019-02-22T21:31:05.414Z,126.00
2019-02-22T21:33:34.811Z,70.30
2019-02-22T21:36:04.133Z,33.77
2019-02-22T21:38:33.459Z,24.73
2019-02-22T21:41:02.797Z,29.13
2019-02-22T21:43:32.221Z,28.83
2019-02-22T21:46:01.517Z,37.73
2019-02-22T21:48:30.905Z,44.73
2019-02-22T21:51:00.265Z,68.87
2019-02-22T21:53:29.541Z,105.50
2019-02-22T21:55:58.829Z,112.17
2019-02-22T21:58:28.185Z,164.37
2019-02-22T22:00:57.502Z,177.47
2019-02-22T22:03:26.797Z,185.03
2019-02-22T22:05:56.140Z,227.80
2019-02-22T22:08:25.416Z,197.10
2019-02-22T22:10:54.708Z,175.77
2019-02-22T22:13:24.295Z,141.33
2019-02-22T22:15:53.664Z,124.93
2019-02-22T22:18:23.032Z,119.40
2019-02-22T22:20:52.693Z,113.30
2019-02-22T22:23:22.061Z,118.80
2019-02-22T22:25:51.526Z,121.43
2019-02-22T22:28:20.840Z,130.73
2019-02-22T22:30:50.180Z,126.20
2019-02-22T22:33:19.577Z,124.60
2019-02-22T22:35:48.880Z,112.77
2019-02-22T22:38:18.220Z,123.27
2019-02-22T22:40:47.527Z,162.93
2019-02-22T22:43:16.848Z,133.07
2019-02-22T22:45:46.520Z,125.93
2019-02-22T22:48:15.940Z,111.30
2019-02-22T22:50:45.232Z,130.20
2019-02-22T22:53:14.692Z,133.50
2019-02-22T22:55:44.080Z,153.23
2019-02-22T22:58:13.400Z,124.97
2019-02-22T23:01:23.844Z,138.27
2019-02-22T23:03:53.148Z,157.20
2019-02-22T23:06:22.480Z,130.50
2019-02-22T23:08:51.856Z,117.43
2019-02-22T23:11:21.536Z,192.20
2019-02-22T23:13:51.051Z,86.23
2019-02-22T23:16:20.424Z,68.60
2019-02-22T23:19:01.085Z,64.40
2019-02-22T23:21:24.068Z,58.73
2019-02-22T23:23:53.400Z,65.17
2019-02-22T23:26:23.055Z,54.40
2019-02-22T23:28:52.344Z,63.00
2019-02-22T23:31:21.787Z,52.97
2019-02-22T23:33:51.056Z,119.07
2019-02-22T23:36:20.386Z,86.27
2019-02-22T23:38:49.702Z,78.77
2019-02-22T23:41:18.966Z,69.37
2019-02-22T23:43:48.259Z,75.00
2019-02-22T23:46:17.519Z,66.67
2019-02-22T23:48:46.932Z,73.63
2019-02-22T23:51:16.272Z,60.07
2019-02-22T23:53:45.590Z,62.97
2019-02-22T23:56:14.948Z,63.83
2019-02-22T23:58:44.252Z,56.17
